sensor_id;sensor_type;location;lat;lon;timestamp;P1;durP1;ratioP1;P2;durP2;ratioP2
37781;SDS011;23621;50.878;4.584;2023-12-22T00:00:43;11.45;;;4.05;;
37781;SDS011;23621;50.878;4.584;2023-12-22T00:03:30;16.80;;;3.80;;
37781;SDS011;23621;50.878;4.584;2023-12-22T00:06:17;11.68;;;3.40;;
37781;SDS011;23621;50.878;4.584;2023-12-22T00:09:05;14.90;;;4.07;;
37781;SDS011;23621;50.878;4.584;2023-12-22T00:11:52;14.07;;;4.13;;
37781;SDS011;23621;50.878;4.584;2023-12-22T00:14:40;10.82;;;3.67;;
37781;SDS011;23621;50.878;4.584;2023-12-22T00:17:27;13.10;;;3.78;;
37781;SDS011;23621;50.878;4.584;2023-12-22T00:20:14;16.40;;;4.22;;
37781;SDS011;23621;50.878;4.584;2023-12-22T00:23:02;9.60;;;3.38;;
37781;SDS011;23621;50.878;4.584;2023-12-22T00:25:49;12.43;;;3.80;;
37781;SDS011;23621;50.878;4.584;2023-12-22T00:28:36;16.23;;;3.42;;
37781;SDS011;23621;50.878;4.584;2023-12-22T00:31:23;11.18;;;3.00;;
37781;SDS011;23621;50.878;4.584;2023-12-22T00:34:11;11.93;;;3.28;;
37781;SDS011;23621;50.878;4.584;2023-12-22T00:36:58;11.00;;;3.28;;
37781;SDS011;23621;50.878;4.584;2023-12-22T00:39:46;10.77;;;3.00;;
37781;SDS011;23621;50.878;4.584;2023-12-22T00:42:34;8.10;;;2.80;;
37781;SDS011;23621;50.878;4.584;2023-12-22T00:45:21;9.40;;;2.45;;
37781;SDS011;23621;50.878;4.584;2023-12-22T00:48:09;9.75;;;2.90;;
37781;SDS011;23621;50.878;4.584;2023-12-22T00:50:56;8.07;;;2.90;;
37781;SDS011;23621;50.878;4.584;2023-12-22T00:53:43;11.30;;;3.10;;
37781;SDS011;23621;50.878;4.584;2023-12-22T00:56:31;9.50;;;3.28;;
37781;SDS011;23621;50.878;4.584;2023-12-22T00:59:18;15.02;;;4.45;;
37781;SDS011;23621;50.878;4.584;2023-12-22T01:02:05;13.60;;;3.63;;
37781;SDS011;23621;50.878;4.584;2023-12-22T01:04:53;14.88;;;3.90;;
37781;SDS011;23621;50.878;4.584;2023-12-22T01:07:40;15.23;;;4.35;;
37781;SDS011;23621;50.878;4.584;2023-12-22T01:10:27;13.93;;;4.00;;
37781;SDS011;23621;50.878;4.584;2023-12-22T01:13:15;10.38;;;3.58;;
37781;SDS011;23621;50.878;4.584;2023-12-22T01:16:02;18.25;;;4.47;;
37781;SDS011;23621;50.878;4.584;2023-12-22T01:18:50;12.93;;;4.50;;
37781;SDS011;23621;50.878;4.584;2023-12-22T01:21:37;15.05;;;4.68;;
37781;SDS011;23621;50.878;4.584;2023-12-22T01:24:25;15.73;;;3.97;;
37781;SDS011;23621;50.878;4.584;2023-12-22T01:27:12;13.02;;;4.13;;
37781;SDS011;23621;50.878;4.584;2023-12-22T01:29:59;13.70;;;4.75;;
37781;SDS011;23621;50.878;4.584;2023-12-22T01:32:47;13.65;;;3.78;;
37781;SDS011;23621;50.878;4.584;2023-12-22T01:35:34;14.18;;;3.90;;
37781;SDS011;23621;50.878;4.584;2023-12-22T01:38:21;14.60;;;4.47;;
37781;SDS011;23621;50.878;4.584;2023-12-22T01:41:08;15.35;;;4.55;;
37781;SDS011;23621;50.878;4.584;2023-12-22T01:43:56;14.25;;;4.43;;
37781;SDS011;23621;50.878;4.584;2023-12-22T01:46:43;14.70;;;4.05;;
37781;SDS011;23621;50.878;4.584;2023-12-22T01:49:30;14.25;;;4.07;;
37781;SDS011;23621;50.878;4.584;2023-12-22T01:52:18;16.63;;;4.90;;
37781;SDS011;23621;50.878;4.584;2023-12-22T01:55:06;14.60;;;3.28;;
37781;SDS011;23621;50.878;4.584;2023-12-22T01:57:57;16.35;;;4.05;;
37781;SDS011;23621;50.878;4.584;2023-12-22T02:00:45;20.92;;;4.55;;
37781;SDS011;23621;50.878;4.584;2023-12-22T02:03:33;14.15;;;4.63;;
37781;SDS011;23621;50.878;4.584;2023-12-22T02:06:20;16.65;;;4.78;;
37781;SDS011;23621;50.878;4.584;2023-12-22T02:09:08;14.93;;;4.25;;
37781;SDS011;23621;50.878;4.584;2023-12-22T02:11:55;15.27;;;4.50;;
37781;SDS011;23621;50.878;4.584;2023-12-22T02:14:42;14.38;;;4.38;;
37781;SDS011;23621;50.878;4.584;2023-12-22T02:17:33;15.45;;;4.57;;
37781;SDS011;23621;50.878;4.584;2023-12-22T02:20:37;14.40;;;4.28;;
37781;SDS011;23621;50.878;4.584;2023-12-22T02:23:25;12.80;;;4.40;;
37781;SDS011;23621;50.878;4.584;2023-12-22T02:26:55;11.75;;;3.92;;
37781;SDS011;23621;50.878;4.584;2023-12-22T02:29:26;16.52;;;4.68;;
37781;SDS011;23621;50.878;4.584;2023-12-22T02:32:27;12.02;;;4.18;;
37781;SDS011;23621;50.878;4.584;2023-12-22T02:35:19;15.68;;;3.53;;
37781;SDS011;23621;50.878;4.584;2023-12-22T02:38:08;13.13;;;3.95;;
37781;SDS011;23621;50.878;4.584;2023-12-22T02:40:56;10.05;;;3.45;;
37781;SDS011;23621;50.878;4.584;2023-12-22T02:43:44;15.98;;;4.68;;
37781;SDS011;23621;50.878;4.584;2023-12-22T02:46:32;9.60;;;3.70;;
37781;SDS011;23621;50.878;4.584;2023-12-22T02:49:20;14.70;;;4.72;;
37781;SDS011;23621;50.878;4.584;2023-12-22T02:52:08;13.30;;;3.78;;
37781;SDS011;23621;50.878;4.584;2023-12-22T02:54:55;12.18;;;4.03;;
37781;SDS011;23621;50.878;4.584;2023-12-22T02:57:42;10.95;;;4.13;;
37781;SDS011;23621;50.878;4.584;2023-12-22T03:00:30;12.30;;;3.55;;
37781;SDS011;23621;50.878;4.584;2023-12-22T03:03:17;11.65;;;3.78;;
37781;SDS011;23621;50.878;4.584;2023-12-22T03:06:06;11.48;;;3.22;;
37781;SDS011;23621;50.878;4.584;2023-12-22T03:08:53;7.80;;;2.83;;
37781;SDS011;23621;50.878;4.584;2023-12-22T03:11:41;8.50;;;2.70;;
37781;SDS011;23621;50.878;4.584;2023-12-22T03:14:31;10.00;;;2.72;;
37781;SDS011;23621;50.878;4.584;2023-12-22T03:17:20;7.68;;;2.72;;
37781;SDS011;23621;50.878;4.584;2023-12-22T03:20:07;7.03;;;2.78;;
37781;SDS011;23621;50.878;4.584;2023-12-22T03:22:55;8.65;;;3.03;;
37781;SDS011;23621;50.878;4.584;2023-12-22T03:25:42;10.90;;;3.08;;
37781;SDS011;23621;50.878;4.584;2023-12-22T03:28:29;10.95;;;3.00;;
37781;SDS011;23621;50.878;4.584;2023-12-22T03:31:17;8.70;;;3.05;;
37781;SDS011;23621;50.878;4.584;2023-12-22T03:34:04;7.72;;;3.03;;
37781;SDS011;23621;50.878;4.584;2023-12-22T03:36:51;10.60;;;3.38;;
37781;SDS011;23621;50.878;4.584;2023-12-22T03:39:38;10.32;;;3.60;;
37781;SDS011;23621;50.878;4.584;2023-12-22T03:42:26;11.90;;;3.50;;
37781;SDS011;23621;50.878;4.584;2023-12-22T03:45:13;8.60;;;3.15;;
37781;SDS011;23621;50.878;4.584;2023-12-22T03:48:00;13.75;;;3.92;;
37781;SDS011;23621;50.878;4.584;2023-12-22T03:50:48;10.30;;;3.75;;
37781;SDS011;23621;50.878;4.584;2023-12-22T03:53:35;10.25;;;3.78;;
37781;SDS011;23621;50.878;4.584;2023-12-22T03:56:22;10.13;;;3.47;;
37781;SDS011;23621;50.878;4.584;2023-12-22T03:59:09;17.60;;;4.30;;
37781;SDS011;23621;50.878;4.584;2023-12-22T04:01:57;12.32;;;3.72;;
37781;SDS011;23621;50.878;4.584;2023-12-22T04:04:47;16.52;;;4.57;;
37781;SDS011;23621;50.878;4.584;2023-12-22T04:07:35;9.07;;;3.67;;
37781;SDS011;23621;50.878;4.584;2023-12-22T04:10:22;8.90;;;3.15;;
37781;SDS011;23621;50.878;4.584;2023-12-22T04:13:10;11.45;;;3.13;;
37781;SDS011;23621;50.878;4.584;2023-12-22T04:15:57;10.73;;;3.33;;
37781;SDS011;23621;50.878;4.584;2023-12-22T04:18:44;11.60;;;3.63;;
37781;SDS011;23621;50.878;4.584;2023-12-22T04:21:32;11.85;;;4.10;;
37781;SDS011;23621;50.878;4.584;2023-12-22T04:24:19;13.20;;;3.63;;
37781;SDS011;23621;50.878;4.584;2023-12-22T04:27:06;10.23;;;3.40;;
37781;SDS011;23621;50.878;4.584;2023-12-22T04:29:54;11.23;;;3.90;;
37781;SDS011;23621;50.878;4.584;2023-12-22T04:32:41;16.88;;;4.30;;
37781;SDS011;23621;50.878;4.584;2023-12-22T04:35:28;14.95;;;4.32;;
37781;SDS011;23621;50.878;4.584;2023-12-22T04:38:15;13.25;;;4.22;;
37781;SDS011;23621;50.878;4.584;2023-12-22T04:41:03;13.27;;;4.40;;
37781;SDS011;23621;50.878;4.584;2023-12-22T04:43:50;17.73;;;4.82;;
37781;SDS011;23621;50.878;4.584;2023-12-22T04:46:38;18.77;;;4.63;;
37781;SDS011;23621;50.878;4.584;2023-12-22T04:49:25;15.23;;;4.38;;
37781;SDS011;23621;50.878;4.584;2023-12-22T04:52:13;12.57;;;4.18;;
37781;SDS011;23621;50.878;4.584;2023-12-22T04:55:00;18.50;;;4.63;;
37781;SDS011;23621;50.878;4.584;2023-12-22T04:57:47;18.45;;;5.00;;
37781;SDS011;23621;50.878;4.584;2023-12-22T05:00:35;18.55;;;5.00;;
37781;SDS011;23621;50.878;4.584;2023-12-22T05:03:22;20.42;;;4.90;;
37781;SDS011;23621;50.878;4.584;2023-12-22T05:06:10;19.83;;;4.95;;
37781;SDS011;23621;50.878;4.584;2023-12-22T05:08:57;19.85;;;4.82;;
37781;SDS011;23621;50.878;4.584;2023-12-22T05:11:44;19.40;;;5.40;;
37781;SDS011;23621;50.878;4.584;2023-12-22T05:14:32;17.27;;;4.63;;
37781;SDS011;23621;50.878;4.584;2023-12-22T05:17:19;22.27;;;5.13;;
37781;SDS011;23621;50.878;4.584;2023-12-22T05:20:06;19.80;;;5.30;;
37781;SDS011;23621;50.878;4.584;2023-12-22T05:22:54;20.42;;;5.53;;
37781;SDS011;23621;50.878;4.584;2023-12-22T05:25:41;20.77;;;5.93;;
37781;SDS011;23621;50.878;4.584;2023-12-22T05:28:29;23.42;;;5.43;;
37781;SDS011;23621;50.878;4.584;2023-12-22T05:31:16;22.45;;;5.75;;
37781;SDS011;23621;50.878;4.584;2023-12-22T05:34:04;18.63;;;5.65;;
37781;SDS011;23621;50.878;4.584;2023-12-22T05:36:51;20.80;;;4.90;;
37781;SDS011;23621;50.878;4.584;2023-12-22T05:39:39;22.92;;;5.32;;
37781;SDS011;23621;50.878;4.584;2023-12-22T05:42:26;20.13;;;5.47;;
37781;SDS011;23621;50.878;4.584;2023-12-22T05:45:14;18.83;;;5.10;;
37781;SDS011;23621;50.878;4.584;2023-12-22T05:48:01;25.52;;;5.72;;
37781;SDS011;23621;50.878;4.584;2023-12-22T05:50:49;20.02;;;5.47;;
37781;SDS011;23621;50.878;4.584;2023-12-22T05:53:36;21.73;;;5.78;;
37781;SDS011;23621;50.878;4.584;2023-12-22T05:56:24;16.90;;;6.10;;
37781;SDS011;23621;50.878;4.584;2023-12-22T05:59:11;21.10;;;5.95;;
37781;SDS011;23621;50.878;4.584;2023-12-22T06:01:58;23.58;;;5.68;;
37781;SDS011;23621;50.878;4.584;2023-12-22T06:04:46;15.52;;;4.55;;
37781;SDS011;23621;50.878;4.584;2023-12-22T06:07:33;23.58;;;6.28;;
37781;SDS011;23621;50.878;4.584;2023-12-22T06:10:20;21.38;;;6.28;;
37781;SDS011;23621;50.878;4.584;2023-12-22T06:13:08;27.75;;;5.82;;
37781;SDS011;23621;50.878;4.584;2023-12-22T06:15:55;22.60;;;5.03;;
37781;SDS011;23621;50.878;4.584;2023-12-22T06:18:42;20.35;;;4.75;;
37781;SDS011;23621;50.878;4.584;2023-12-22T06:21:30;18.35;;;5.28;;
37781;SDS011;23621;50.878;4.584;2023-12-22T06:24:17;22.58;;;5.80;;
37781;SDS011;23621;50.878;4.584;2023-12-22T06:27:05;19.10;;;6.20;;
37781;SDS011;23621;50.878;4.584;2023-12-22T06:29:53;15.32;;;4.25;;
37781;SDS011;23621;50.878;4.584;2023-12-22T06:32:42;14.20;;;5.43;;
37781;SDS011;23621;50.878;4.584;2023-12-22T06:35:29;13.75;;;4.55;;
37781;SDS011;23621;50.878;4.584;2023-12-22T06:38:18;23.80;;;4.85;;
37781;SDS011;23621;50.878;4.584;2023-12-22T06:41:06;10.35;;;4.40;;
37781;SDS011;23621;50.878;4.584;2023-12-22T06:43:53;16.23;;;4.88;;
37781;SDS011;23621;50.878;4.584;2023-12-22T06:46:41;12.88;;;4.75;;
37781;SDS011;23621;50.878;4.584;2023-12-22T06:49:28;14.05;;;4.35;;
37781;SDS011;23621;50.878;4.584;2023-12-22T06:52:15;13.45;;;4.45;;
37781;SDS011;23621;50.878;4.584;2023-12-22T06:55:03;10.90;;;4.10;;
37781;SDS011;23621;50.878;4.584;2023-12-22T06:57:50;10.43;;;4.20;;
37781;SDS011;23621;50.878;4.584;2023-12-22T07:00:40;12.50;;;4.03;;
37781;SDS011;23621;50.878;4.584;2023-12-22T07:03:27;14.90;;;3.45;;
37781;SDS011;23621;50.878;4.584;2023-12-22T07:06:15;15.55;;;4.43;;
37781;SDS011;23621;50.878;4.584;2023-12-22T07:12:06;11.88;;;3.55;;
37781;SDS011;23621;50.878;4.584;2023-12-22T07:14:55;10.00;;;3.30;;
37781;SDS011;23621;50.878;4.584;2023-12-22T07:17:42;9.45;;;3.05;;
37781;SDS011;23621;50.878;4.584;2023-12-22T07:20:29;10.68;;;3.13;;
37781;SDS011;23621;50.878;4.584;2023-12-22T07:23:17;9.50;;;2.78;;
37781;SDS011;23621;50.878;4.584;2023-12-22T07:26:04;9.77;;;2.88;;
37781;SDS011;23621;50.878;4.584;2023-12-22T07:28:51;8.88;;;2.92;;
37781;SDS011;23621;50.878;4.584;2023-12-22T07:31:42;9.70;;;3.00;;
37781;SDS011;23621;50.878;4.584;2023-12-22T07:34:32;8.93;;;2.83;;
37781;SDS011;23621;50.878;4.584;2023-12-22T07:37:23;5.63;;;2.58;;
37781;SDS011;23621;50.878;4.584;2023-12-22T07:40:11;8.75;;;2.90;;
37781;SDS011;23621;50.878;4.584;2023-12-22T07:42:58;9.77;;;2.88;;
37781;SDS011;23621;50.878;4.584;2023-12-22T07:45:46;11.48;;;3.67;;
37781;SDS011;23621;50.878;4.584;2023-12-22T07:48:34;9.80;;;3.10;;
37781;SDS011;23621;50.878;4.584;2023-12-22T07:51:22;8.52;;;3.33;;
37781;SDS011;23621;50.878;4.584;2023-12-22T07:54:09;6.95;;;2.53;;
37781;SDS011;23621;50.878;4.584;2023-12-22T07:56:56;6.70;;;3.15;;
37781;SDS011;23621;50.878;4.584;2023-12-22T07:59:43;6.45;;;2.70;;
37781;SDS011;23621;50.878;4.584;2023-12-22T08:02:31;4.95;;;2.75;;
37781;SDS011;23621;50.878;4.584;2023-12-22T08:05:18;4.53;;;2.38;;
37781;SDS011;23621;50.878;4.584;2023-12-22T08:08:05;6.50;;;2.55;;
37781;SDS011;23621;50.878;4.584;2023-12-22T08:10:53;5.47;;;2.00;;
37781;SDS011;23621;50.878;4.584;2023-12-22T08:13:40;6.65;;;2.55;;
37781;SDS011;23621;50.878;4.584;2023-12-22T08:16:27;5.60;;;2.50;;
37781;SDS011;23621;50.878;4.584;2023-12-22T08:19:14;5.60;;;2.10;;
37781;SDS011;23621;50.878;4.584;2023-12-22T08:22:02;4.63;;;2.25;;
37781;SDS011;23621;50.878;4.584;2023-12-22T08:24:53;3.45;;;1.98;;
37781;SDS011;23621;50.878;4.584;2023-12-22T08:27:41;4.72;;;2.53;;
37781;SDS011;23621;50.878;4.584;2023-12-22T08:30:28;4.55;;;2.60;;
37781;SDS011;23621;50.878;4.584;2023-12-22T08:33:16;3.63;;;2.10;;
37781;SDS011;23621;50.878;4.584;2023-12-22T08:36:03;3.22;;;2.38;;
37781;SDS011;23621;50.878;4.584;2023-12-22T08:38:51;3.92;;;2.50;;
37781;SDS011;23621;50.878;4.584;2023-12-22T08:41:39;4.15;;;2.35;;
37781;SDS011;23621;50.878;4.584;2023-12-22T08:44:26;5.32;;;2.78;;
37781;SDS011;23621;50.878;4.584;2023-12-22T08:47:14;4.45;;;2.60;;
37781;SDS011;23621;50.878;4.584;2023-12-22T08:50:01;3.63;;;2.53;;
37781;SDS011;23621;50.878;4.584;2023-12-22T08:52:51;3.38;;;2.15;;
37781;SDS011;23621;50.878;4.584;2023-12-22T08:55:39;4.75;;;2.50;;
37781;SDS011;23621;50.878;4.584;2023-12-22T08:58:26;4.35;;;2.40;;
37781;SDS011;23621;50.878;4.584;2023-12-22T09:01:14;5.43;;;3.28;;
37781;SDS011;23621;50.878;4.584;2023-12-22T09:04:02;4.25;;;3.55;;
37781;SDS011;23621;50.878;4.584;2023-12-22T09:06:52;4.30;;;3.65;;
37781;SDS011;23621;50.878;4.584;2023-12-22T09:09:39;4.72;;;3.33;;
37781;SDS011;23621;50.878;4.584;2023-12-22T09:12:27;5.03;;;3.67;;
37781;SDS011;23621;50.878;4.584;2023-12-22T09:15:14;5.82;;;3.53;;
37781;SDS011;23621;50.878;4.584;2023-12-22T09:18:02;5.13;;;3.45;;
37781;SDS011;23621;50.878;4.584;2023-12-22T09:20:50;4.35;;;2.83;;
37781;SDS011;23621;50.878;4.584;2023-12-22T09:23:37;5.05;;;3.47;;
37781;SDS011;23621;50.878;4.584;2023-12-22T09:26:24;6.18;;;3.70;;
37781;SDS011;23621;50.878;4.584;2023-12-22T09:29:15;5.40;;;3.60;;
37781;SDS011;23621;50.878;4.584;2023-12-22T09:32:03;5.30;;;3.42;;
37781;SDS011;23621;50.878;4.584;2023-12-22T09:34:51;7.43;;;3.33;;
37781;SDS011;23621;50.878;4.584;2023-12-22T09:37:39;5.25;;;3.45;;
37781;SDS011;23621;50.878;4.584;2023-12-22T09:40:27;6.25;;;3.53;;
37781;SDS011;23621;50.878;4.584;2023-12-22T09:43:14;4.63;;;3.05;;
37781;SDS011;23621;50.878;4.584;2023-12-22T09:46:02;5.72;;;3.15;;
37781;SDS011;23621;50.878;4.584;2023-12-22T09:48:51;6.25;;;2.60;;
37781;SDS011;23621;50.878;4.584;2023-12-22T09:51:40;6.35;;;2.45;;
37781;SDS011;23621;50.878;4.584;2023-12-22T09:54:30;5.50;;;2.55;;
37781;SDS011;23621;50.878;4.584;2023-12-22T09:57:18;4.03;;;2.30;;
37781;SDS011;23621;50.878;4.584;2023-12-22T10:00:14;3.55;;;2.00;;
37781;SDS011;23621;50.878;4.584;2023-12-22T10:03:04;3.45;;;2.08;;
37781;SDS011;23621;50.878;4.584;2023-12-22T10:05:53;3.05;;;1.95;;
37781;SDS011;23621;50.878;4.584;2023-12-22T10:08:40;5.22;;;2.13;;
37781;SDS011;23621;50.878;4.584;2023-12-22T10:11:28;5.38;;;1.98;;
37781;SDS011;23621;50.878;4.584;2023-12-22T10:14:16;3.42;;;1.88;;
37781;SDS011;23621;50.878;4.584;2023-12-22T10:17:08;4.22;;;1.70;;
37781;SDS011;23621;50.878;4.584;2023-12-22T10:19:56;2.75;;;1.80;;
37781;SDS011;23621;50.878;4.584;2023-12-22T10:22:43;3.92;;;1.77;;
37781;SDS011;23621;50.878;4.584;2023-12-22T10:25:30;5.68;;;1.65;;
37781;SDS011;23621;50.878;4.584;2023-12-22T10:28:19;3.90;;;1.70;;
37781;SDS011;23621;50.878;4.584;2023-12-22T10:31:11;3.10;;;1.60;;
37781;SDS011;23621;50.878;4.584;2023-12-22T10:34:00;1.90;;;1.45;;
37781;SDS011;23621;50.878;4.584;2023-12-22T10:36:47;4.43;;;1.90;;
37781;SDS011;23621;50.878;4.584;2023-12-22T10:39:35;3.58;;;1.75;;
37781;SDS011;23621;50.878;4.584;2023-12-22T10:42:24;2.08;;;1.77;;
37781;SDS011;23621;50.878;4.584;2023-12-22T10:45:11;2.88;;;1.50;;
37781;SDS011;23621;50.878;4.584;2023-12-22T10:47:58;2.88;;;1.80;;
37781;SDS011;23621;50.878;4.584;2023-12-22T10:50:46;1.67;;;1.42;;
37781;SDS011;23621;50.878;4.584;2023-12-22T10:53:34;2.78;;;1.70;;
37781;SDS011;23621;50.878;4.584;2023-12-22T10:56:22;3.08;;;1.80;;
37781;SDS011;23621;50.878;4.584;2023-12-22T10:59:09;2.47;;;1.45;;
37781;SDS011;23621;50.878;4.584;2023-12-22T11:01:57;4.97;;;2.08;;
37781;SDS011;23621;50.878;4.584;2023-12-22T11:04:55;4.38;;;1.98;;
37781;SDS011;23621;50.878;4.584;2023-12-22T11:07:50;5.93;;;1.90;;
37781;SDS011;23621;50.878;4.584;2023-12-22T11:10:42;4.55;;;2.17;;
37781;SDS011;23621;50.878;4.584;2023-12-22T11:13:31;5.15;;;2.00;;
37781;SDS011;23621;50.878;4.584;2023-12-22T11:16:20;6.63;;;2.40;;
37781;SDS011;23621;50.878;4.584;2023-12-22T11:19:08;3.90;;;2.00;;
37781;SDS011;23621;50.878;4.584;2023-12-22T11:21:56;2.03;;;1.63;;
37781;SDS011;23621;50.878;4.584;2023-12-22T11:24:46;3.15;;;1.67;;
37781;SDS011;23621;50.878;4.584;2023-12-22T11:27:35;3.53;;;1.67;;
37781;SDS011;23621;50.878;4.584;2023-12-22T11:30:24;2.60;;;1.55;;
37781;SDS011;23621;50.878;4.584;2023-12-22T11:33:18;2.03;;;1.60;;
37781;SDS011;23621;50.878;4.584;2023-12-22T11:36:07;2.90;;;1.60;;
37781;SDS011;23621;50.878;4.584;2023-12-22T11:38:57;3.22;;;1.50;;
37781;SDS011;23621;50.878;4.584;2023-12-22T11:41:45;2.35;;;1.48;;
37781;SDS011;23621;50.878;4.584;2023-12-22T11:44:35;2.80;;;1.25;;
37781;SDS011;23621;50.878;4.584;2023-12-22T11:47:23;3.58;;;2.00;;
37781;SDS011;23621;50.878;4.584;2023-12-22T11:50:11;2.88;;;1.83;;
37781;SDS011;23621;50.878;4.584;2023-12-22T11:53:17;3.63;;;1.70;;
37781;SDS011;23621;50.878;4.584;2023-12-22T11:56:06;2.30;;;1.35;;
37781;SDS011;23621;50.878;4.584;2023-12-22T11:58:55;5.38;;;1.90;;
37781;SDS011;23621;50.878;4.584;2023-12-22T12:01:45;3.13;;;1.60;;
37781;SDS011;23621;50.878;4.584;2023-12-22T12:04:42;1.75;;;1.38;;
37781;SDS011;23621;50.878;4.584;2023-12-22T12:13:22;4.72;;;1.60;;
37781;SDS011;23621;50.878;4.584;2023-12-22T12:16:13;2.67;;;1.73;;
37781;SDS011;23621;50.878;4.584;2023-12-22T12:19:02;2.60;;;1.40;;
37781;SDS011;23621;50.878;4.584;2023-12-22T12:21:58;2.78;;;1.42;;
37781;SDS011;23621;50.878;4.584;2023-12-22T12:24:45;6.05;;;1.77;;
37781;SDS011;23621;50.878;4.584;2023-12-22T12:27:32;2.08;;;1.23;;
37781;SDS011;23621;50.878;4.584;2023-12-22T12:30:23;3.53;;;1.30;;
37781;SDS011;23621;50.878;4.584;2023-12-22T12:33:11;1.88;;;1.20;;
37781;SDS011;23621;50.878;4.584;2023-12-22T12:36:00;2.95;;;1.60;;
37781;SDS011;23621;50.878;4.584;2023-12-22T12:38:55;1.40;;;1.15;;
37781;SDS011;23621;50.878;4.584;2023-12-22T12:41:50;2.47;;;1.50;;
37781;SDS011;23621;50.878;4.584;2023-12-22T12:44:40;5.28;;;1.55;;
37781;SDS011;23621;50.878;4.584;2023-12-22T12:47:29;4.53;;;1.70;;
37781;SDS011;23621;50.878;4.584;2023-12-22T12:50:21;4.65;;;1.52;;
37781;SDS011;23621;50.878;4.584;2023-12-22T12:53:10;4.10;;;1.75;;
37781;SDS011;23621;50.878;4.584;2023-12-22T12:55:57;3.38;;;1.30;;
37781;SDS011;23621;50.878;4.584;2023-12-22T12:58:44;2.72;;;1.60;;
37781;SDS011;23621;50.878;4.584;2023-12-22T13:01:32;5.63;;;1.77;;
37781;SDS011;23621;50.878;4.584;2023-12-22T13:04:25;3.95;;;1.85;;
37781;SDS011;23621;50.878;4.584;2023-12-22T13:07:25;2.83;;;1.40;;
37781;SDS011;23621;50.878;4.584;2023-12-22T13:10:23;3.50;;;1.67;;
37781;SDS011;23621;50.878;4.584;2023-12-22T13:13:11;3.38;;;1.75;;
37781;SDS011;23621;50.878;4.584;2023-12-22T13:15:58;5.05;;;1.75;;
37781;SDS011;23621;50.878;4.584;2023-12-22T13:18:46;3.13;;;1.65;;
37781;SDS011;23621;50.878;4.584;2023-12-22T13:21:34;3.53;;;1.85;;
37781;SDS011;23621;50.878;4.584;2023-12-22T13:24:23;6.47;;;2.33;;
37781;SDS011;23621;50.878;4.584;2023-12-22T13:27:12;4.78;;;1.77;;
37781;SDS011;23621;50.878;4.584;2023-12-22T13:30:02;4.05;;;1.95;;
37781;SDS011;23621;50.878;4.584;2023-12-22T13:32:53;3.20;;;1.67;;
37781;SDS011;23621;50.878;4.584;2023-12-22T13:35:41;4.20;;;1.73;;
37781;SDS011;23621;50.878;4.584;2023-12-22T13:38:29;3.35;;;1.65;;
37781;SDS011;23621;50.878;4.584;2023-12-22T13:41:16;6.32;;;1.92;;
37781;SDS011;23621;50.878;4.584;2023-12-22T13:44:04;4.18;;;1.63;;
37781;SDS011;23621;50.878;4.584;2023-12-22T13:46:52;2.17;;;1.20;;
37781;SDS011;23621;50.878;4.584;2023-12-22T13:49:39;3.33;;;1.40;;
37781;SDS011;23621;50.878;4.584;2023-12-22T13:52:28;3.25;;;1.50;;
37781;SDS011;23621;50.878;4.584;2023-12-22T13:55:20;4.35;;;1.33;;
37781;SDS011;23621;50.878;4.584;2023-12-22T13:58:15;3.90;;;1.75;;
37781;SDS011;23621;50.878;4.584;2023-12-22T14:01:02;3.63;;;1.50;;
37781;SDS011;23621;50.878;4.584;2023-12-22T14:04:03;3.50;;;1.60;;
37781;SDS011;23621;50.878;4.584;2023-12-22T14:06:50;3.78;;;1.67;;
37781;SDS011;23621;50.878;4.584;2023-12-22T14:09:38;2.75;;;1.50;;
37781;SDS011;23621;50.878;4.584;2023-12-22T14:12:25;4.07;;;1.60;;
37781;SDS011;23621;50.878;4.584;2023-12-22T14:15:18;4.35;;;1.60;;
37781;SDS011;23621;50.878;4.584;2023-12-22T14:18:05;3.10;;;1.55;;
37781;SDS011;23621;50.878;4.584;2023-12-22T14:20:52;2.55;;;1.50;;
37781;SDS011;23621;50.878;4.584;2023-12-22T14:23:39;4.30;;;1.73;;
37781;SDS011;23621;50.878;4.584;2023-12-22T14:26:27;5.18;;;1.67;;
37781;SDS011;23621;50.878;4.584;2023-12-22T14:29:14;6.07;;;1.85;;
37781;SDS011;23621;50.878;4.584;2023-12-22T14:32:02;6.93;;;2.00;;
37781;SDS011;23621;50.878;4.584;2023-12-22T14:34:51;2.75;;;1.80;;
37781;SDS011;23621;50.878;4.584;2023-12-22T14:37:39;3.08;;;1.77;;
37781;SDS011;23621;50.878;4.584;2023-12-22T14:40:26;2.97;;;1.65;;
37781;SDS011;23621;50.878;4.584;2023-12-22T14:43:13;3.83;;;1.50;;
37781;SDS011;23621;50.878;4.584;2023-12-22T14:46:01;4.57;;;1.50;;
37781;SDS011;23621;50.878;4.584;2023-12-22T14:48:48;3.03;;;1.60;;
37781;SDS011;23621;50.878;4.584;2023-12-22T14:51:37;4.95;;;1.83;;
37781;SDS011;23621;50.878;4.584;2023-12-22T14:54:25;8.68;;;2.08;;
37781;SDS011;23621;50.878;4.584;2023-12-22T14:57:13;3.10;;;1.50;;
37781;SDS011;23621;50.878;4.584;2023-12-22T15:00:01;5.93;;;1.80;;
37781;SDS011;23621;50.878;4.584;2023-12-22T15:02:48;3.72;;;1.50;;
37781;SDS011;23621;50.878;4.584;2023-12-22T15:05:36;3.03;;;1.70;;
37781;SDS011;23621;50.878;4.584;2023-12-22T15:08:25;3.45;;;1.60;;
37781;SDS011;23621;50.878;4.584;2023-12-22T15:11:12;3.30;;;1.50;;
37781;SDS011;23621;50.878;4.584;2023-12-22T15:14:00;5.03;;;1.70;;
37781;SDS011;23621;50.878;4.584;2023-12-22T15:16:47;4.07;;;1.80;;
37781;SDS011;23621;50.878;4.584;2023-12-22T15:19:41;4.05;;;1.75;;
37781;SDS011;23621;50.878;4.584;2023-12-22T15:22:29;2.50;;;1.45;;
37781;SDS011;23621;50.878;4.584;2023-12-22T15:25:16;3.28;;;1.48;;
37781;SDS011;23621;50.878;4.584;2023-12-22T15:28:05;4.25;;;1.60;;
37781;SDS011;23621;50.878;4.584;2023-12-22T15:30:52;2.95;;;1.60;;
37781;SDS011;23621;50.878;4.584;2023-12-22T15:33:39;5.70;;;1.55;;
37781;SDS011;23621;50.878;4.584;2023-12-22T15:36:28;4.40;;;1.70;;
37781;SDS011;23621;50.878;4.584;2023-12-22T15:39:16;4.45;;;1.60;;
37781;SDS011;23621;50.878;4.584;2023-12-22T15:42:03;3.70;;;1.50;;
37781;SDS011;23621;50.878;4.584;2023-12-22T15:44:51;4.07;;;1.95;;
37781;SDS011;23621;50.878;4.584;2023-12-22T15:47:38;1.83;;;1.30;;
37781;SDS011;23621;50.878;4.584;2023-12-22T15:50:27;5.30;;;1.67;;
37781;SDS011;23621;50.878;4.584;2023-12-22T15:53:14;3.38;;;1.42;;
37781;SDS011;23621;50.878;4.584;2023-12-22T15:56:05;3.58;;;1.73;;
37781;SDS011;23621;50.878;4.584;2023-12-22T15:58:53;2.72;;;1.75;;
37781;SDS011;23621;50.878;4.584;2023-12-22T16:01:44;3.58;;;1.55;;
37781;SDS011;23621;50.878;4.584;2023-12-22T16:04:31;4.20;;;1.85;;
37781;SDS011;23621;50.878;4.584;2023-12-22T16:07:19;3.15;;;1.70;;
37781;SDS011;23621;50.878;4.584;2023-12-22T16:10:06;3.25;;;1.70;;
37781;SDS011;23621;50.878;4.584;2023-12-22T16:12:55;2.70;;;1.65;;
37781;SDS011;23621;50.878;4.584;2023-12-22T16:15:42;3.72;;;1.60;;
37781;SDS011;23621;50.878;4.584;2023-12-22T16:18:30;5.50;;;2.05;;
37781;SDS011;23621;50.878;4.584;2023-12-22T16:21:17;3.85;;;1.80;;
37781;SDS011;23621;50.878;4.584;2023-12-22T16:24:04;4.65;;;2.05;;
37781;SDS011;23621;50.878;4.584;2023-12-22T16:26:51;3.78;;;1.55;;
37781;SDS011;23621;50.878;4.584;2023-12-22T16:29:39;5.07;;;1.70;;
37781;SDS011;23621;50.878;4.584;2023-12-22T16:32:26;4.63;;;1.38;;
37781;SDS011;23621;50.878;4.584;2023-12-22T16:35:14;2.97;;;1.50;;
37781;SDS011;23621;50.878;4.584;2023-12-22T16:38:01;4.75;;;2.10;;
37781;SDS011;23621;50.878;4.584;2023-12-22T16:40:49;2.38;;;1.20;;
37781;SDS011;23621;50.878;4.584;2023-12-22T16:43:37;3.97;;;1.50;;
37781;SDS011;23621;50.878;4.584;2023-12-22T16:46:24;3.60;;;1.75;;
37781;SDS011;23621;50.878;4.584;2023-12-22T16:49:12;6.57;;;2.30;;
37781;SDS011;23621;50.878;4.584;2023-12-22T16:51:59;4.25;;;2.05;;
37781;SDS011;23621;50.878;4.584;2023-12-22T16:54:46;4.65;;;1.80;;
37781;SDS011;23621;50.878;4.584;2023-12-22T16:57:33;5.53;;;1.63;;